»·PEaware :: N982ZB KVCV-KCMA

N982ZB :: KVCV-KCMA

FLIGHT INFORMATION

Flight Status: Arrived
Operator: Privately registered:
United States
More flights under this callsign
Pilot: Anonymous 15639 (15639)
Aircraft: ROBIN DR-400
(DR40)
More flights by this aircraft type
Origin: KVCV Socal Logistics
United States
Destination: KCMA Camarillo
United States
More flights between these airports :: More routes between these airports
Route: +PMD V386 FIM
File this flight plan on PilotEdge
Remarks:
Altitude:
(Current/Filed)
8,000ft
Speed:
(Current/Filed)
120kts
Departed: 29-Jun-18 02:59 PM
Arrived: 29-Jun-18 04:28 PM
Distance/Time
Traveled:
88nm/1:29
Distance/Time
To Go:
Arrived

Flight Plot

Page will automatically refresh every two minutes.

Flight plan parsing failed; only flown route is shown


Map Options




Map Legend


Flown Route
Filed Route
Departure Airport
Arrival Airport
Navaid (VOR, NDB)
Fix

Horizontal Profiles

Position Reports

Time Latitude Longitude Heading Altitude Ground
Speed
29-Jun-18 14:59 33.916702 -117.590886 12 7502ft 129kts
29-Jun-18 15:00 33.952637 -117.579630 12 7498ft 135kts
29-Jun-18 15:01 33.989258 -117.568447 11 7495ft 136kts
29-Jun-18 15:01 34.019034 -117.559398 11 7490ft 128kts
29-Jun-18 15:02 34.053765 -117.548879 11 7485ft 129kts
29-Jun-18 15:03 34.088700 -117.538283 11 7479ft 130kts
29-Jun-18 15:04 34.122336 -117.528074 11 7481ft 123kts
29-Jun-18 15:05 34.155397 -117.518067 11 7481ft 122kts
29-Jun-18 15:07 34.193796 -117.506413 11 7480ft 122kts
29-Jun-18 15:07 34.221287 -117.498049 11 7480ft 122kts
29-Jun-18 15:08 34.254136 -117.488046 11 7486ft 121kts
29-Jun-18 15:09 34.286893 -117.478066 11 7487ft 121kts
29-Jun-18 15:30 34.587916 -117.375491 311 2887ft 0kts
29-Jun-18 15:31 34.587940 -117.375523 311 2887ft 1kts
29-Jun-18 15:32 34.588839 -117.376575 314 2887ft 0kts
29-Jun-18 15:33 34.591129 -117.374866 45 2887ft 15kts
29-Jun-18 15:34 34.593271 -117.370859 89 2887ft 14kts
29-Jun-18 15:35 34.594546 -117.367700 11 2887ft 13kts
29-Jun-18 15:36 34.598602 -117.366726 10 2887ft 12kts
29-Jun-18 15:37 34.595795 -117.372499 225 3004ft 76kts
29-Jun-18 15:38 34.588807 -117.398935 263 4073ft 93kts
29-Jun-18 15:39 34.587896 -117.430890 268 5142ft 103kts
29-Jun-18 15:40 34.585199 -117.467206 262 6018ft 113kts
29-Jun-18 15:41 34.581752 -117.505893 262 6807ft 117kts
29-Jun-18 15:42 34.577790 -117.545373 262 7597ft 119kts
29-Jun-18 15:43 34.573168 -117.586981 262 8000ft 130kts
29-Jun-18 15:44 34.568262 -117.630220 262 7999ft 129kts
29-Jun-18 15:45 34.578176 -117.667343 301 7995ft 115kts
29-Jun-18 15:46 34.594720 -117.699950 301 7991ft 112kts
29-Jun-18 15:47 34.604351 -117.735648 273 7983ft 115kts
29-Jun-18 15:48 34.607624 -117.774167 278 7980ft 114kts
29-Jun-18 15:49 34.610809 -117.812416 278 7974ft 113kts
29-Jun-18 15:50 34.613961 -117.850473 279 7969ft 113kts
29-Jun-18 15:51 34.617133 -117.888905 278 7972ft 114kts
29-Jun-18 15:52 34.620296 -117.927410 278 7974ft 114kts
29-Jun-18 15:53 34.623450 -117.965935 278 7978ft 115kts
29-Jun-18 15:54 34.626601 -118.004572 278 7981ft 115kts
29-Jun-18 15:55 34.629734 -118.043138 278 7985ft 115kts
29-Jun-18 15:56 34.625107 -118.081294 260 7988ft 117kts
29-Jun-18 15:57 34.618430 -118.119929 262 7989ft 117kts
29-Jun-18 15:58 34.611745 -118.158083 262 7987ft 117kts
29-Jun-18 15:59 34.593330 -118.190993 244 7986ft 120kts
29-Jun-18 16:00 34.578307 -118.227054 251 7984ft 119kts
29-Jun-18 16:01 34.565098 -118.264118 253 7983ft 119kts
29-Jun-18 16:02 34.552351 -118.301572 254 7984ft 119kts
29-Jun-18 16:03 34.539873 -118.338746 252 7991ft 118kts
29-Jun-18 16:04 34.527483 -118.375735 250 8003ft 118kts
29-Jun-18 16:05 34.513864 -118.416469 247 7611ft 138kts
29-Jun-18 16:06 34.499244 -118.459944 247 6922ft 140kts
29-Jun-18 16:07 34.484566 -118.503605 247 6230ft 140kts
29-Jun-18 16:08 34.470084 -118.546552 247 6043ft 134kts
29-Jun-18 16:09 34.456215 -118.587963 247 6045ft 132kts
29-Jun-18 16:10 34.438068 -118.624032 192 6042ft 124kts
29-Jun-18 16:11 34.404789 -118.635444 192 6041ft 124kts
29-Jun-18 16:12 34.371588 -118.647084 192 6004ft 122kts
29-Jun-18 16:13 34.338675 -118.658655 191 5478ft 126kts
29-Jun-18 16:14 34.305432 -118.670005 191 5002ft 119kts
29-Jun-18 16:15 34.279924 -118.690945 241 4875ft 130kts
29-Jun-18 16:16 34.264025 -118.731260 242 4283ft 129kts
29-Jun-18 16:17 34.247411 -118.767516 240 4006ft 114kts
29-Jun-18 16:18 34.234448 -118.802027 253 3876ft 117kts
29-Jun-18 16:19 34.225318 -118.840554 249 3364ft 110kts
29-Jun-18 16:20 34.214714 -118.875093 249 2810ft 113kts
29-Jun-18 16:21 34.212079 -118.910842 271 2439ft 103kts
29-Jun-18 16:22 34.212075 -118.945010 270 2152ft 99kts
29-Jun-18 16:23 34.213363 -118.978266 262 1894ft 97kts
29-Jun-18 16:24 34.212991 -119.010699 271 1512ft 91kts
29-Jun-18 16:25 34.213352 -119.038145 267 996ft 79kts
29-Jun-18 16:26 34.213566 -119.063593 268 498ft 68kts
29-Jun-18 16:27 34.213697 -119.085093 268 99ft 59kts
29-Jun-18 16:28 34.212387 -119.090883 152 80ft 9kts
29-Jun-18 16:29 34.210469 -119.088872 181 80ft 6kts
29-Jun-18 16:30 34.210397 -119.088670 89 80ft 0kts
29-Jun-18 16:31 34.210397 -119.088670 89 80ft 0kts
29-Jun-18 16:32 34.210397 -119.088670 89 80ft 0kts
29-Jun-18 16:33 34.210397 -119.088670 89 80ft 0kts
29-Jun-18 16:34 34.210397 -119.088670 89 80ft 0kts
29-Jun-18 16:35 34.210397 -119.088670 89 80ft 0kts
29-Jun-18 16:36 34.210397 -119.088670 89 80ft 0kts
29-Jun-18 16:37 34.210397 -119.088670 89 80ft 0kts
29-Jun-18 16:38 34.210397 -119.088670 89 80ft 0kts
29-Jun-18 16:39 34.210397 -119.088670 89 80ft 0kts
29-Jun-18 16:40 34.210397 -119.088670 89 80ft 0kts
29-Jun-18 16:41 34.210397 -119.088670 89 80ft 0kts
29-Jun-18 16:42 34.210397 -119.088670 89 80ft 0kts

Navigation Log

Ident Type
Flight plan parsing failed, navigation log unavailable